createdAt,value
2018-12-13T00:00:17.715Z,5.97
2018-12-13T00:02:45.783Z,6.27
2018-12-13T00:05:13.819Z,5.80
2018-12-13T00:07:41.896Z,5.73
2018-12-13T00:10:10.061Z,4.93
2018-12-13T00:12:38.151Z,6.13
2018-12-13T00:15:06.715Z,6.07
2018-12-13T00:17:34.752Z,5.47
2018-12-13T00:20:03.032Z,5.93
2018-12-13T00:22:31.814Z,6.30
2018-12-13T00:24:59.874Z,6.13
2018-12-13T00:27:27.988Z,5.47
2018-12-13T00:29:56.026Z,6.10
2018-12-13T00:32:24.110Z,6.03
2018-12-13T00:34:52.213Z,6.10
2018-12-13T00:37:20.254Z,5.83
2018-12-13T00:39:48.370Z,5.57
2018-12-13T00:42:16.486Z,6.13
2018-12-13T00:44:44.571Z,5.67
2018-12-13T00:47:13.043Z,5.60
2018-12-13T00:49:41.622Z,6.10
2018-12-13T00:52:09.674Z,5.27
2018-12-13T00:54:37.747Z,5.57
2018-12-13T00:57:05.877Z,5.43
2018-12-13T00:59:33.951Z,5.30
2018-12-13T01:02:02.016Z,5.77
2018-12-13T01:04:30.068Z,5.70
2018-12-13T01:06:58.148Z,6.13
2018-12-13T01:09:26.207Z,5.43
2018-12-13T01:11:54.306Z,6.03
2018-12-13T01:14:22.375Z,5.40
2018-12-13T01:16:50.445Z,5.97
2018-12-13T01:19:18.792Z,5.50
2018-12-13T01:21:46.849Z,5.70
2018-12-13T01:24:14.906Z,6.53
2018-12-13T01:26:43.311Z,6.17
2018-12-13T01:29:11.402Z,5.73
2018-12-13T01:31:39.443Z,5.93
2018-12-13T01:34:07.523Z,5.83
2018-12-13T01:36:35.574Z,5.40
2018-12-13T01:39:04.795Z,5.50
2018-12-13T01:41:32.894Z,6.30
2018-12-13T01:44:00.976Z,6.00
2018-12-13T01:46:29.035Z,5.87
2018-12-13T01:48:57.118Z,5.97
2018-12-13T01:51:25.177Z,6.00
2018-12-13T01:53:53.234Z,6.13
2018-12-13T01:56:21.320Z,6.20
2018-12-13T01:58:49.403Z,6.60
2018-12-13T02:01:17.578Z,5.67
2018-12-13T02:03:45.659Z,6.30
2018-12-13T02:06:13.770Z,5.83
2018-12-13T02:08:41.882Z,6.00
2018-12-13T02:11:10.167Z,5.90
2018-12-13T02:13:38.227Z,6.10
2018-12-13T02:16:06.514Z,6.07
2018-12-13T02:18:34.600Z,6.17
2018-12-13T02:21:02.859Z,5.87
2018-12-13T02:23:30.911Z,5.93
2018-12-13T02:25:58.994Z,5.70
2018-12-13T02:28:28.003Z,5.77
2018-12-13T02:30:56.072Z,5.77
2018-12-13T02:33:24.162Z,6.20
2018-12-13T02:35:52.315Z,5.80
2018-12-13T02:38:20.377Z,6.50
2018-12-13T02:40:48.544Z,5.33
2018-12-13T02:43:16.587Z,5.77
2018-12-13T02:45:44.667Z,5.73
2018-12-13T02:48:12.985Z,6.73
2018-12-13T02:50:41.051Z,6.17
2018-12-13T02:53:09.327Z,5.70
2018-12-13T02:55:37.532Z,6.20
2018-12-13T02:58:06.157Z,5.70
2018-12-13T03:00:34.894Z,5.13
2018-12-13T03:03:03.325Z,5.63
2018-12-13T03:05:31.736Z,6.17
2018-12-13T03:07:59.822Z,5.97
2018-12-13T03:10:27.943Z,5.33
2018-12-13T03:12:56.135Z,6.60
2018-12-13T03:15:24.171Z,6.47
2018-12-13T03:17:52.537Z,6.30
2018-12-13T03:20:20.670Z,5.90
2018-12-13T03:22:48.845Z,6.40
2018-12-13T03:25:16.957Z,6.00
2018-12-13T03:27:45.017Z,6.37
2018-12-13T03:30:13.448Z,5.67
2018-12-13T03:32:42.124Z,6.13
2018-12-13T03:35:10.295Z,5.77
2018-12-13T03:37:38.320Z,5.10
2018-12-13T03:40:06.573Z,5.87
2018-12-13T03:42:34.716Z,6.27
2018-12-13T03:45:02.802Z,6.17
2018-12-13T03:47:31.475Z,5.83
2018-12-13T03:49:59.561Z,6.00
2018-12-13T03:52:27.628Z,6.57
2018-12-13T03:54:55.798Z,6.67
2018-12-13T03:57:23.896Z,6.87
2018-12-13T03:59:51.945Z,6.40
2018-12-13T04:02:20.026Z,6.97
2018-12-13T04:04:48.102Z,6.30
2018-12-13T04:07:16.187Z,6.43
2018-12-13T04:09:44.274Z,6.37
2018-12-13T04:12:12.324Z,6.23
2018-12-13T04:14:40.407Z,5.80
2018-12-13T04:17:08.879Z,6.07
2018-12-13T04:19:36.956Z,6.80
2018-12-13T04:22:05.121Z,6.87
2018-12-13T04:24:33.261Z,6.93
2018-12-13T04:27:01.436Z,7.57
2018-12-13T04:29:29.517Z,6.93
2018-12-13T04:31:57.689Z,7.00
2018-12-13T04:34:25.865Z,6.20
2018-12-13T04:36:53.939Z,6.30
2018-12-13T04:39:22.026Z,6.23
2018-12-13T04:41:50.101Z,6.13
2018-12-13T04:44:18.163Z,6.40
2018-12-13T04:46:46.243Z,7.70
2018-12-13T04:49:14.419Z,8.03
2018-12-13T04:51:42.491Z,8.43
2018-12-13T04:54:10.596Z,8.47
2018-12-13T04:56:38.723Z,8.47
2018-12-13T04:59:06.890Z,8.23
2018-12-13T05:01:35.380Z,7.87
2018-12-13T05:04:03.459Z,7.67
2018-12-13T05:06:31.518Z,7.37
2018-12-13T05:08:59.641Z,7.83
2018-12-13T05:11:27.718Z,7.67
2018-12-13T05:13:55.751Z,8.10
2018-12-13T05:16:23.812Z,8.00
2018-12-13T05:18:51.987Z,8.63
2018-12-13T05:21:20.067Z,8.30
2018-12-13T05:23:48.172Z,8.17
2018-12-13T05:26:16.283Z,7.23
2018-12-13T05:28:44.459Z,7.40
2018-12-13T05:31:12.819Z,8.83
2018-12-13T05:33:41.891Z,7.77
2018-12-13T05:36:10.016Z,8.53
2018-12-13T05:38:38.499Z,8.23
2018-12-13T05:41:06.575Z,9.43
2018-12-13T05:43:34.655Z,9.03
2018-12-13T05:46:02.907Z,9.80
2018-12-13T05:48:31.010Z,8.73
2018-12-13T05:50:59.271Z,8.90
2018-12-13T05:53:27.447Z,8.97
2018-12-13T05:55:55.507Z,9.50
2018-12-13T05:58:24.171Z,8.90
2018-12-13T06:00:52.259Z,8.80
2018-12-13T06:03:20.859Z,9.13
2018-12-13T06:05:49.023Z,9.20
2018-12-13T06:08:17.150Z,9.17
2018-12-13T06:10:45.186Z,9.57
2018-12-13T06:13:13.646Z,9.50
2018-12-13T06:15:41.727Z,9.83
2018-12-13T06:18:09.818Z,10.00
2018-12-13T06:20:37.911Z,9.50
2018-12-13T06:23:06.039Z,9.50
2018-12-13T06:25:34.163Z,9.37
2018-12-13T06:28:02.367Z,10.10
2018-12-13T06:30:30.843Z,9.07
2018-12-13T06:32:58.947Z,9.77
2018-12-13T06:35:27.016Z,9.47
2018-12-13T06:38:01.034Z,9.63
2018-12-13T06:40:25.189Z,10.43
2018-12-13T06:42:53.271Z,9.90
2018-12-13T06:45:21.327Z,9.43
2018-12-13T06:47:49.435Z,10.23
2018-12-13T06:50:17.495Z,9.50
2018-12-13T06:52:45.591Z,9.93
2018-12-13T06:55:13.686Z,10.23
2018-12-13T06:57:41.782Z,10.00
2018-12-13T07:00:10.291Z,10.40
2018-12-13T07:02:38.331Z,9.93
2018-12-13T07:05:06.444Z,9.50
2018-12-13T07:07:34.560Z,9.67
2018-12-13T07:10:02.654Z,9.30
2018-12-13T07:12:30.723Z,9.53
2018-12-13T07:14:58.823Z,10.30
2018-12-13T07:17:26.941Z,10.63
2018-12-13T07:19:55.011Z,10.07
2018-12-13T07:22:23.438Z,10.47
2018-12-13T07:24:51.564Z,10.90
2018-12-13T07:27:19.654Z,10.10
2018-12-13T07:29:47.977Z,10.90
2018-12-13T07:32:16.147Z,9.17
2018-12-13T07:34:44.210Z,11.13
2018-12-13T07:37:12.334Z,11.87
2018-12-13T07:39:40.362Z,10.57
2018-12-13T07:42:08.504Z,10.63
2018-12-13T07:44:36.570Z,10.67
2018-12-13T07:47:04.690Z,10.17
2018-12-13T07:49:32.743Z,9.77
2018-12-13T07:52:00.923Z,11.43
2018-12-13T07:54:29.011Z,11.47
2018-12-13T07:56:57.107Z,10.67
2018-12-13T07:59:25.235Z,10.07
2018-12-13T08:01:53.410Z,10.27
2018-12-13T08:04:21.526Z,9.83
2018-12-13T08:06:49.739Z,7.67
2018-12-13T08:09:17.831Z,10.87
2018-12-13T08:11:46.006Z,11.27
2018-12-13T08:14:14.066Z,10.47
2018-12-13T08:16:42.229Z,10.47
2018-12-13T08:19:10.319Z,11.07
2018-12-13T08:21:38.407Z,10.30
2018-12-13T08:24:06.659Z,11.30
2018-12-13T08:26:34.782Z,10.90
2018-12-13T08:29:02.855Z,10.33
2018-12-13T08:31:31.026Z,11.03
2018-12-13T08:33:59.198Z,11.40
2018-12-13T08:36:27.956Z,10.77
2018-12-13T08:38:56.060Z,10.67
2018-12-13T08:41:24.388Z,10.00
2018-12-13T08:43:52.518Z,10.10
2018-12-13T08:46:20.581Z,9.33
2018-12-13T08:48:48.647Z,9.53
2018-12-13T08:51:16.704Z,9.30
2018-12-13T08:53:44.753Z,9.50
2018-12-13T08:56:12.824Z,9.43
2018-12-13T08:58:40.938Z,9.27
2018-12-13T09:01:09.113Z,9.50
2018-12-13T09:03:37.240Z,9.50
2018-12-13T09:06:05.319Z,8.97
2018-12-13T09:08:33.796Z,8.30
2018-12-13T09:11:02.072Z,6.37
2018-12-13T09:13:30.335Z,8.80
2018-12-13T09:15:58.628Z,11.83
2018-12-13T09:18:26.736Z,11.10
2018-12-13T09:20:54.754Z,8.97
2018-12-13T09:23:23.242Z,9.67
2018-12-13T09:25:51.296Z,11.37
2018-12-13T09:28:19.491Z,11.33
2018-12-13T09:30:47.722Z,9.80
2018-12-13T09:33:15.823Z,10.43
2018-12-13T09:35:43.899Z,10.90
2018-12-13T09:38:11.969Z,11.17
2018-12-13T09:40:40.056Z,10.43
2018-12-13T09:43:08.134Z,11.20
2018-12-13T09:45:36.186Z,10.83
2018-12-13T09:48:04.268Z,11.50
2018-12-13T09:50:32.441Z,10.90
2018-12-13T09:53:00.522Z,11.53
2018-12-13T09:55:28.674Z,10.43
2018-12-13T09:57:56.767Z,10.70
2018-12-13T10:00:24.807Z,9.73
2018-12-13T10:02:52.867Z,10.50
2018-12-13T10:05:20.988Z,10.37
2018-12-13T10:07:49.058Z,10.33
2018-12-13T10:10:17.131Z,12.03
2018-12-13T10:12:45.232Z,12.80
2018-12-13T10:15:13.269Z,8.90
2018-12-13T10:17:41.431Z,12.00
2018-12-13T10:20:09.881Z,10.73
2018-12-13T10:22:38.024Z,11.30
2018-12-13T10:25:06.204Z,9.00
2018-12-13T10:27:34.330Z,12.03
2018-12-13T10:30:02.411Z,11.40
2018-12-13T10:32:30.468Z,11.30
2018-12-13T10:34:58.543Z,9.87
2018-12-13T10:37:26.629Z,9.23
2018-12-13T10:39:54.767Z,11.50
2018-12-13T10:42:22.869Z,11.37
2018-12-13T10:44:50.942Z,8.97
2018-12-13T10:47:19.003Z,7.70
2018-12-13T10:49:47.094Z,10.63
2018-12-13T10:52:15.168Z,9.90
2018-12-13T10:54:43.619Z,11.03
2018-12-13T10:57:11.895Z,7.97
2018-12-13T10:59:39.975Z,9.47
2018-12-13T11:02:10.039Z,11.40
2018-12-13T11:04:38.087Z,12.03
2018-12-13T11:07:06.435Z,10.50
2018-12-13T11:09:34.505Z,10.60
2018-12-13T11:12:02.729Z,12.47
2018-12-13T11:14:30.883Z,11.73
2018-12-13T11:16:58.951Z,10.47
2018-12-13T11:19:26.994Z,10.20
2018-12-13T11:21:55.072Z,8.43
2018-12-13T11:24:23.256Z,11.53
2018-12-13T11:26:51.391Z,11.40
2018-12-13T11:29:25.097Z,12.27
2018-12-13T11:31:53.160Z,11.73
2018-12-13T11:34:21.316Z,13.37
2018-12-13T11:36:49.413Z,12.20
2018-12-13T11:39:17.495Z,11.73
2018-12-13T11:41:45.564Z,9.07
2018-12-13T11:44:13.622Z,11.10
2018-12-13T11:46:41.709Z,9.07
2018-12-13T11:49:12.272Z,10.87
2018-12-13T11:51:39.944Z,10.70
2018-12-13T11:54:13.642Z,11.00
2018-12-13T11:56:41.943Z,10.73
2018-12-13T11:59:10.016Z,11.30
2018-12-13T12:01:38.035Z,11.50
2018-12-13T12:04:06.135Z,11.50
2018-12-13T12:06:34.211Z,12.27
2018-12-13T12:09:02.338Z,12.47
2018-12-13T12:11:30.635Z,12.33
2018-12-13T12:13:58.711Z,11.97
2018-12-13T12:16:26.757Z,9.83
2018-12-13T12:18:54.844Z,10.13
2018-12-13T12:21:22.886Z,12.30
2018-12-13T12:23:50.975Z,11.33
2018-12-13T12:26:19.030Z,12.20
2018-12-13T12:28:47.181Z,11.83
2018-12-13T12:31:15.252Z,12.20
2018-12-13T12:33:43.575Z,12.47
2018-12-13T12:36:11.646Z,12.30
2018-12-13T12:38:39.770Z,10.57
2018-12-13T12:41:08.557Z,12.43
2018-12-13T12:43:36.621Z,10.83
2018-12-13T12:46:04.654Z,12.27
2018-12-13T12:48:32.766Z,11.43
2018-12-13T12:51:00.895Z,11.60
2018-12-13T12:53:28.962Z,9.90
2018-12-13T12:55:57.060Z,10.27
2018-12-13T12:58:25.206Z,6.57
2018-12-13T13:00:53.275Z,11.20
2018-12-13T13:03:21.351Z,11.27
2018-12-13T13:05:49.540Z,12.07
2018-12-13T13:08:17.615Z,12.20
2018-12-13T13:10:45.684Z,10.27
2018-12-13T13:13:13.845Z,10.67
2018-12-13T13:15:41.927Z,12.13
2018-12-13T13:18:09.975Z,8.97
2018-12-13T13:20:38.068Z,12.63
2018-12-13T13:23:06.162Z,11.20
2018-12-13T13:25:34.205Z,10.53
2018-12-13T13:28:02.302Z,11.93
2018-12-13T13:30:30.347Z,11.47
2018-12-13T13:32:58.485Z,9.23
2018-12-13T13:35:26.712Z,11.27
2018-12-13T13:37:54.872Z,10.07
2018-12-13T13:40:22.950Z,11.03
2018-12-13T13:42:51.028Z,9.33
2018-12-13T13:45:19.482Z,12.13
2018-12-13T13:47:47.571Z,11.30
2018-12-13T13:50:15.642Z,11.80
2018-12-13T13:52:43.760Z,10.77
2018-12-13T13:55:11.826Z,9.13
2018-12-13T13:57:39.850Z,9.43
2018-12-13T14:00:10.012Z,11.33
2018-12-13T14:02:38.459Z,11.07
2018-12-13T14:05:06.626Z,8.87
2018-12-13T14:07:34.811Z,11.60
2018-12-13T14:10:03.007Z,10.37
2018-12-13T14:12:31.048Z,11.13
2018-12-13T14:14:59.107Z,10.87
2018-12-13T14:17:27.220Z,11.70
2018-12-13T14:19:55.306Z,10.57
2018-12-13T14:22:23.382Z,10.87
2018-12-13T14:24:51.487Z,11.10
2018-12-13T14:27:19.563Z,10.00
2018-12-13T14:29:47.611Z,10.13
2018-12-13T14:32:15.718Z,11.47
2018-12-13T14:34:43.795Z,11.67
2018-12-13T14:37:11.913Z,11.07
2018-12-13T14:39:44.331Z,10.53
2018-12-13T14:42:10.051Z,11.13
2018-12-13T14:44:38.154Z,10.43
2018-12-13T14:47:06.223Z,11.40
2018-12-13T14:49:34.370Z,11.13
2018-12-13T14:52:02.655Z,11.53
2018-12-13T14:54:30.716Z,10.57
2018-12-13T14:56:58.795Z,8.93
2018-12-13T14:59:26.879Z,11.33
2018-12-13T15:01:55.020Z,12.03
2018-12-13T15:04:23.079Z,11.83
2018-12-13T15:06:51.187Z,11.23
2018-12-13T15:09:19.339Z,11.23
2018-12-13T15:11:48.111Z,12.30
2018-12-13T15:14:16.599Z,9.73
2018-12-13T15:16:44.702Z,11.13
2018-12-13T15:19:12.775Z,11.27
2018-12-13T15:21:40.880Z,11.87
2018-12-13T15:24:08.919Z,11.07
2018-12-13T15:26:36.979Z,11.00
2018-12-13T15:29:05.209Z,11.93
2018-12-13T15:31:33.299Z,10.77
2018-12-13T15:34:01.372Z,8.37
2018-12-13T15:36:29.479Z,11.57
2018-12-13T15:38:57.561Z,9.80
2018-12-13T15:41:25.624Z,10.80
2018-12-13T15:43:53.753Z,10.10
2018-12-13T15:46:21.874Z,10.17
2018-12-13T15:48:49.933Z,9.43
2018-12-13T15:51:18.048Z,10.33
2018-12-13T15:53:46.722Z,10.17
2018-12-13T15:56:14.977Z,9.63
2018-12-13T15:58:43.063Z,9.53
2018-12-13T16:01:11.102Z,8.53
2018-12-13T16:03:39.183Z,8.83
2018-12-13T16:06:07.235Z,8.87
2018-12-13T16:08:35.291Z,8.27
2018-12-13T16:11:03.466Z,8.43
2018-12-13T16:13:31.843Z,9.07
2018-12-13T16:16:00.009Z,9.00
2018-12-13T16:18:28.091Z,8.67
2018-12-13T16:20:56.275Z,9.40
2018-12-13T16:23:24.343Z,9.80
2018-12-13T16:25:52.419Z,10.40
2018-12-13T16:28:20.507Z,10.00
2018-12-13T16:30:48.556Z,10.20
2018-12-13T16:33:16.613Z,10.47
2018-12-13T16:35:44.930Z,11.57
2018-12-13T16:38:12.999Z,10.83
2018-12-13T16:40:41.050Z,11.00
2018-12-13T16:43:09.552Z,10.30
2018-12-13T16:45:37.627Z,10.37
2018-12-13T16:48:05.696Z,9.43
2018-12-13T16:50:34.175Z,10.27
2018-12-13T16:53:02.246Z,10.70
2018-12-13T16:55:30.433Z,11.20
2018-12-13T16:57:58.499Z,9.97
2018-12-13T17:00:26.652Z,10.37
2018-12-13T17:02:54.692Z,9.90
2018-12-13T17:05:22.759Z,9.60
2018-12-13T17:07:50.851Z,8.70
2018-12-13T17:10:18.903Z,9.90
2018-12-13T17:12:47.486Z,10.40
2018-12-13T17:15:15.611Z,10.50
2018-12-13T17:17:43.891Z,10.53
2018-12-13T17:20:12.066Z,9.60
2018-12-13T17:22:40.119Z,8.53
2018-12-13T17:25:08.174Z,9.83
2018-12-13T17:27:36.560Z,10.23
2018-12-13T17:30:08.335Z,9.93
2018-12-13T17:32:36.399Z,10.07
2018-12-13T17:35:05.548Z,8.83
2018-12-13T17:37:33.703Z,10.70
2018-12-13T17:40:01.876Z,10.90
2018-12-13T17:42:29.934Z,8.57
2018-12-13T17:44:57.990Z,7.87
2018-12-13T17:47:26.067Z,10.13
2018-12-13T17:49:54.183Z,9.67
2018-12-13T17:52:22.219Z,10.60
2018-12-13T17:54:50.294Z,10.93
2018-12-13T17:57:18.342Z,11.13
2018-12-13T17:59:46.414Z,10.53
2018-12-13T18:02:14.500Z,10.23
2018-12-13T18:04:42.543Z,9.53
2018-12-13T18:07:10.643Z,8.27
2018-12-13T18:09:38.699Z,10.17
2018-12-13T18:12:06.758Z,9.63
2018-12-13T18:14:34.930Z,8.00
2018-12-13T18:17:02.983Z,9.47
2018-12-13T18:19:31.211Z,10.20
2018-12-13T18:21:59.730Z,7.03
2018-12-13T18:24:28.055Z,9.67
2018-12-13T18:26:56.122Z,10.07
2018-12-13T18:29:24.207Z,9.83
2018-12-13T18:31:52.270Z,9.03
2018-12-13T18:34:20.343Z,10.60
2018-12-13T18:36:48.424Z,10.93
2018-12-13T18:39:16.695Z,10.27
2018-12-13T18:41:44.760Z,10.97
2018-12-13T18:44:13.048Z,10.63
2018-12-13T18:46:41.314Z,9.97
2018-12-13T18:49:09.395Z,10.83
2018-12-13T18:51:37.453Z,10.20
2018-12-13T18:54:05.543Z,10.17
2018-12-13T18:56:33.602Z,7.70
2018-12-13T18:59:01.739Z,9.10
2018-12-13T19:01:29.855Z,10.17
2018-12-13T19:03:57.895Z,9.80
2018-12-13T19:06:26.251Z,10.30
2018-12-13T19:08:54.335Z,8.93
2018-12-13T19:11:22.414Z,9.10
2018-12-13T19:13:50.512Z,9.40
2018-12-13T19:16:18.563Z,8.87
2018-12-13T19:18:46.652Z,9.57
2018-12-13T19:21:15.138Z,9.00
2018-12-13T19:23:43.283Z,9.00
2018-12-13T19:26:11.551Z,9.43
2018-12-13T19:28:39.755Z,9.77
2018-12-13T19:31:07.931Z,8.80
2018-12-13T19:33:35.978Z,6.17
2018-12-13T19:36:04.231Z,8.40
2018-12-13T19:38:32.294Z,7.03
2018-12-13T19:41:00.393Z,8.90
2018-12-13T19:43:28.766Z,9.23
2018-12-13T19:45:56.878Z,9.20
2018-12-13T19:48:25.214Z,9.73
2018-12-13T19:50:53.683Z,9.87
2018-12-13T19:53:22.047Z,8.33
2018-12-13T19:55:50.120Z,9.67
2018-12-13T19:58:18.219Z,9.50
2018-12-13T20:00:46.291Z,9.27
2018-12-13T20:03:14.394Z,7.37
2018-12-13T20:05:42.494Z,9.30
2018-12-13T20:08:10.530Z,7.73
2018-12-13T20:10:38.586Z,8.30
2018-12-13T20:13:06.658Z,9.33
2018-12-13T20:15:34.742Z,9.20
2018-12-13T20:18:02.802Z,9.70
2018-12-13T20:20:30.915Z,10.30
2018-12-13T20:22:58.990Z,10.10
2018-12-13T20:25:27.137Z,8.63
2018-12-13T20:27:55.301Z,9.83
2018-12-13T20:30:23.383Z,10.00
2018-12-13T20:32:51.463Z,10.47
2018-12-13T20:35:19.943Z,10.27
2018-12-13T20:37:48.121Z,9.57
2018-12-13T20:40:16.261Z,10.07
2018-12-13T20:42:44.335Z,10.30
2018-12-13T20:45:12.396Z,8.80
2018-12-13T20:47:40.587Z,8.40
2018-12-13T20:50:09.071Z,10.27
2018-12-13T20:52:37.994Z,11.33
2018-12-13T20:55:06.825Z,10.97
2018-12-13T20:57:35.039Z,10.00
2018-12-13T21:00:07.055Z,8.23
2018-12-13T21:02:36.012Z,10.47
2018-12-13T21:05:04.929Z,10.30
2018-12-13T21:07:33.663Z,11.30
2018-12-13T21:10:02.532Z,10.37
2018-12-13T21:12:30.590Z,9.90
2018-12-13T21:14:58.657Z,10.87
2018-12-13T21:17:26.879Z,11.00
2018-12-13T21:19:54.955Z,10.80
2018-12-13T21:22:23.959Z,10.43
2018-12-13T21:24:52.235Z,10.90
2018-12-13T21:27:20.282Z,10.33
2018-12-13T21:29:48.367Z,10.13
2018-12-13T21:32:16.502Z,11.83
2018-12-13T21:34:44.710Z,12.13
2018-12-13T21:37:12.783Z,11.40
2018-12-13T21:39:40.875Z,11.90
2018-12-13T21:42:08.962Z,11.30
2018-12-13T21:44:37.023Z,11.60
2018-12-13T21:47:05.113Z,11.27
2018-12-13T21:49:33.218Z,12.03
2018-12-13T21:52:01.290Z,11.30
2018-12-13T21:54:29.375Z,12.00
2018-12-13T21:56:57.753Z,11.97
2018-12-13T21:59:25.827Z,11.80
2018-12-13T22:01:53.945Z,10.50
2018-12-13T22:04:22.017Z,11.40
2018-12-13T22:06:50.053Z,10.50
2018-12-13T22:09:18.231Z,10.17
2018-12-13T22:11:46.294Z,9.40
2018-12-13T22:14:14.359Z,11.33
2018-12-13T22:16:42.459Z,11.93
2018-12-13T22:19:10.530Z,12.00
2018-12-13T22:21:38.603Z,10.80
2018-12-13T22:24:06.691Z,11.57
2018-12-13T22:26:34.851Z,11.67
2018-12-13T22:29:03.310Z,7.83
2018-12-13T22:31:31.396Z,10.30
2018-12-13T22:33:59.442Z,11.57
2018-12-13T22:36:27.627Z,11.43
2018-12-13T22:38:55.803Z,11.63
2018-12-13T22:41:26.423Z,11.47
2018-12-13T22:43:53.902Z,11.37
2018-12-13T22:46:22.006Z,11.60
2018-12-13T22:48:50.102Z,11.60
2018-12-13T22:51:18.841Z,10.70
2018-12-13T22:53:46.940Z,11.83
2018-12-13T22:56:15.396Z,10.43
2018-12-13T22:58:43.452Z,11.03
2018-12-13T23:01:11.620Z,11.20
2018-12-13T23:03:39.679Z,12.27
2018-12-13T23:06:07.723Z,10.93
2018-12-13T23:08:35.932Z,10.80
2018-12-13T23:11:04.255Z,11.27
2018-12-13T23:13:32.351Z,10.50
2018-12-13T23:16:00.525Z,11.27
2018-12-13T23:18:28.585Z,10.67
2018-12-13T23:20:56.696Z,9.90
2018-12-13T23:23:24.971Z,10.73
2018-12-13T23:25:53.043Z,10.20
2018-12-13T23:28:21.390Z,11.30
2018-12-13T23:30:49.494Z,10.47
2018-12-13T23:33:17.770Z,9.80
2018-12-13T23:35:45.843Z,10.03
2018-12-13T23:38:14.083Z,10.33
2018-12-13T23:40:42.171Z,9.50
2018-12-13T23:43:10.311Z,10.03
2018-12-13T23:45:39.391Z,9.43
2018-12-13T23:48:07.435Z,9.37
2018-12-13T23:50:35.566Z,9.20
2018-12-13T23:53:03.679Z,9.77
2018-12-13T23:55:31.727Z,8.40
2018-12-13T23:57:59.819Z,9.00
